TRI1129 YSTW-YSSY
Flight info
| Callsign | TRI1129 |
|---|---|
| Flight time | 0h 44m |
| Altitude | 19000 |
| Route | TW DCT SCO H652 TESAT |
| Aircraft | AT46/M-SDFGIRY/S |
Departure
| Time | 2026-04-15 11:20 |
|---|---|
| Airport | Tamworth Airport (YSTW) |
Arrival
| Time | 2026-04-15 12:04 |
|---|---|
| Airport | Sydney Kingsford Smith International Airport (YSSY) |
| Time | Latitude | Longitude | Altitude | Speed | Heading |
|---|---|---|---|---|---|
| 2026-04-15 11:09 | -31.08508 | 150.85009 | 1323 ft | 0 kts | 235° |
| 2026-04-15 11:12 | -31.08508 | 150.85008 | 1323 ft | 0 kts | 234° |
| 2026-04-15 11:12 | -31.08509 | 150.85006 | 1323 ft | 1 kts | 237° |
| 2026-04-15 11:12 | -31.08509 | 150.85004 | 1323 ft | 0 kts | 271° |
| 2026-04-15 11:13 | -31.08507 | 150.85001 | 1323 ft | 1 kts | 313° |
| 2026-04-15 11:13 | -31.08498 | 150.84998 | 1323 ft | 4 kts | 341° |
| 2026-04-15 11:13 | -31.08465 | 150.84989 | 1322 ft | 5 kts | 351° |
| 2026-04-15 11:13 | -31.08419 | 150.84973 | 1321 ft | 9 kts | 321° |
| 2026-04-15 11:14 | -31.08373 | 150.84935 | 1319 ft | 2 kts | 7° |
| 2026-04-15 11:14 | -31.08340 | 150.84940 | 1318 ft | 7 kts | 345° |
| 2026-04-15 11:14 | -31.08298 | 150.84895 | 1317 ft | 10 kts | 313° |
| 2026-04-15 11:14 | -31.08248 | 150.84832 | 1316 ft | 11 kts | 313° |
| 2026-04-15 11:15 | -31.08195 | 150.84766 | 1317 ft | 11 kts | 313° |
| 2026-04-15 11:15 | -31.08140 | 150.84697 | 1315 ft | 13 kts | 313° |
| 2026-04-15 11:15 | -31.08076 | 150.84616 | 1312 ft | 14 kts | 312° |
| 2026-04-15 11:15 | -31.08010 | 150.84533 | 1309 ft | 14 kts | 313° |
| 2026-04-15 11:16 | -31.07942 | 150.84446 | 1307 ft | 14 kts | 311° |
| 2026-04-15 11:16 | -31.07873 | 150.84361 | 1304 ft | 14 kts | 314° |
| 2026-04-15 11:16 | -31.07804 | 150.84275 | 1302 ft | 14 kts | 312° |
| 2026-04-15 11:16 | -31.07736 | 150.84190 | 1300 ft | 14 kts | 314° |
| 2026-04-15 11:17 | -31.07667 | 150.84104 | 1299 ft | 14 kts | 313° |
| 2026-04-15 11:17 | -31.07599 | 150.84020 | 1297 ft | 14 kts | 313° |
| 2026-04-15 11:17 | -31.07533 | 150.83937 | 1296 ft | 14 kts | 313° |
| 2026-04-15 11:17 | -31.07450 | 150.83892 | 1294 ft | 14 kts | 2° |
| 2026-04-15 11:18 | -31.07375 | 150.83939 | 1292 ft | 11 kts | 41° |
| 2026-04-15 11:18 | -31.07348 | 150.83993 | 1292 ft | 6 kts | 97° |
| 2026-04-15 11:18 | -31.07365 | 150.84023 | 1293 ft | 0 kts | 133° |
| 2026-04-15 11:18 | -31.07365 | 150.84022 | 1293 ft | 0 kts | 133° |
| 2026-04-15 11:19 | -31.07394 | 150.84058 | 1294 ft | 32 kts | 133° |
| 2026-04-15 11:19 | -31.07724 | 150.84473 | 1303 ft | 106 kts | 132° |
| 2026-04-15 11:20 | -31.08304 | 150.85240 | 1588 ft | 134 kts | 130° |
| 2026-04-15 11:20 | -31.08908 | 150.86078 | 2238 ft | 136 kts | 131° |
| 2026-04-15 11:20 | -31.09549 | 150.86938 | 2760 ft | 145 kts | 131° |
| 2026-04-15 11:20 | -31.10255 | 150.87918 | 2987 ft | 169 kts | 132° |
| 2026-04-15 11:21 | -31.11048 | 150.88969 | 3450 ft | 174 kts | 133° |
| 2026-04-15 11:21 | -31.11979 | 150.89840 | 3898 ft | 173 kts | 166° |
| 2026-04-15 11:21 | -31.13156 | 150.89747 | 4407 ft | 172 kts | 201° |
| 2026-04-15 11:21 | -31.14262 | 150.89211 | 4920 ft | 172 kts | 205° |
| 2026-04-15 11:22 | -31.15221 | 150.88420 | 5366 ft | 173 kts | 223° |
| 2026-04-15 11:22 | -31.16132 | 150.87490 | 5867 ft | 175 kts | 223° |
| 2026-04-15 11:22 | -31.17050 | 150.86553 | 6354 ft | 177 kts | 224° |
| 2026-04-15 11:22 | -31.17980 | 150.85598 | 6840 ft | 178 kts | 224° |
| 2026-04-15 11:23 | -31.18912 | 150.84645 | 7317 ft | 179 kts | 221° |
| 2026-04-15 11:23 | -31.19961 | 150.83853 | 7780 ft | 181 kts | 207° |
| 2026-04-15 11:23 | -31.21207 | 150.83739 | 8201 ft | 185 kts | 173° |
| 2026-04-15 11:23 | -31.22491 | 150.83975 | 8621 ft | 187 kts | 174° |
| 2026-04-15 11:24 | -31.23783 | 150.84173 | 9067 ft | 187 kts | 176° |
| 2026-04-15 11:24 | -31.25071 | 150.84301 | 9508 ft | 188 kts | 180° |
| 2026-04-15 11:24 | -31.26382 | 150.84348 | 9956 ft | 189 kts | 183° |
| 2026-04-15 11:24 | -31.27697 | 150.84336 | 10366 ft | 189 kts | 185° |
| 2026-04-15 11:25 | -31.29016 | 150.84305 | 10756 ft | 190 kts | 184° |
| 2026-04-15 11:25 | -31.30341 | 150.84279 | 11144 ft | 190 kts | 184° |
| 2026-04-15 11:25 | -31.31669 | 150.84258 | 11531 ft | 191 kts | 184° |
| 2026-04-15 11:25 | -31.33003 | 150.84238 | 11919 ft | 192 kts | 184° |
| 2026-04-15 11:26 | -31.34345 | 150.84216 | 12303 ft | 193 kts | 184° |
| 2026-04-15 11:26 | -31.35679 | 150.84195 | 12680 ft | 194 kts | 184° |
| 2026-04-15 11:26 | -31.37031 | 150.84175 | 13054 ft | 195 kts | 184° |
| 2026-04-15 11:26 | -31.38388 | 150.84155 | 13443 ft | 196 kts | 184° |
| 2026-04-15 11:27 | -31.39752 | 150.84135 | 13809 ft | 197 kts | 185° |
| 2026-04-15 11:27 | -31.41124 | 150.84110 | 14150 ft | 197 kts | 184° |
| 2026-04-15 11:27 | -31.42507 | 150.84091 | 14476 ft | 198 kts | 185° |
| 2026-04-15 11:27 | -31.43889 | 150.84072 | 14790 ft | 199 kts | 185° |
| 2026-04-15 11:28 | -31.45279 | 150.84050 | 15091 ft | 200 kts | 185° |
| 2026-04-15 11:28 | -31.46672 | 150.84029 | 15412 ft | 201 kts | 185° |
| 2026-04-15 11:28 | -31.48071 | 150.84007 | 15736 ft | 201 kts | 185° |
| 2026-04-15 11:28 | -31.49476 | 150.83986 | 16045 ft | 202 kts | 185° |
| 2026-04-15 11:29 | -31.50867 | 150.83963 | 16352 ft | 203 kts | 186° |
| 2026-04-15 11:29 | -31.52285 | 150.83942 | 16658 ft | 204 kts | 186° |
| 2026-04-15 11:29 | -31.53710 | 150.83921 | 16959 ft | 205 kts | 186° |
| 2026-04-15 11:29 | -31.55136 | 150.83899 | 17271 ft | 204 kts | 186° |
| 2026-04-15 11:30 | -31.56521 | 150.83880 | 17728 ft | 196 kts | 186° |
| 2026-04-15 11:30 | -31.57884 | 150.83859 | 18071 ft | 196 kts | 187° |
| 2026-04-15 11:30 | -31.59253 | 150.83835 | 18385 ft | 197 kts | 187° |
| 2026-04-15 11:30 | -31.60627 | 150.83815 | 18658 ft | 197 kts | 187° |
| 2026-04-15 11:31 | -31.62004 | 150.83791 | 18920 ft | 198 kts | 187° |
| 2026-04-15 11:31 | -31.63406 | 150.83768 | 19061 ft | 207 kts | 187° |
| 2026-04-15 11:31 | -31.64887 | 150.83736 | 19136 ft | 219 kts | 187° |
| 2026-04-15 11:31 | -31.66459 | 150.83681 | 19162 ft | 232 kts | 188° |
| 2026-04-15 11:32 | -31.68115 | 150.83626 | 19176 ft | 243 kts | 187° |
| 2026-04-15 11:32 | -31.69820 | 150.83595 | 19183 ft | 252 kts | 186° |
| 2026-04-15 11:32 | -31.71605 | 150.83571 | 19187 ft | 259 kts | 186° |
| 2026-04-15 11:32 | -31.73432 | 150.83544 | 19189 ft | 265 kts | 186° |
| 2026-04-15 11:33 | -31.75299 | 150.83516 | 19183 ft | 270 kts | 186° |
| 2026-04-15 11:33 | -31.77191 | 150.83487 | 19179 ft | 272 kts | 186° |
| 2026-04-15 11:33 | -31.79073 | 150.83457 | 19187 ft | 275 kts | 185° |
| 2026-04-15 11:33 | -31.80995 | 150.83430 | 19178 ft | 276 kts | 186° |
| 2026-04-15 11:34 | -31.82915 | 150.83398 | 19186 ft | 277 kts | 186° |
| 2026-04-15 11:34 | -31.84845 | 150.83368 | 19190 ft | 278 kts | 186° |
| 2026-04-15 11:34 | -31.86787 | 150.83338 | 19181 ft | 279 kts | 186° |
| 2026-04-15 11:34 | -31.88731 | 150.83308 | 19181 ft | 279 kts | 186° |
| 2026-04-15 11:35 | -31.90681 | 150.83278 | 19185 ft | 279 kts | 186° |
| 2026-04-15 11:35 | -31.92630 | 150.83247 | 19184 ft | 280 kts | 186° |
| 2026-04-15 11:35 | -31.94582 | 150.83216 | 19178 ft | 280 kts | 186° |
| 2026-04-15 11:35 | -31.96510 | 150.83187 | 19180 ft | 280 kts | 186° |
| 2026-04-15 11:36 | -31.98464 | 150.83154 | 19184 ft | 281 kts | 186° |
| 2026-04-15 11:36 | -32.00416 | 150.83124 | 19180 ft | 281 kts | 186° |
| 2026-04-15 11:36 | -32.02372 | 150.83090 | 19176 ft | 281 kts | 186° |
| 2026-04-15 11:36 | -32.04334 | 150.83095 | 19177 ft | 283 kts | 180° |
| 2026-04-15 11:37 | -32.06292 | 150.83441 | 19178 ft | 284 kts | 174° |
| 2026-04-15 11:37 | -32.08240 | 150.83887 | 19179 ft | 285 kts | 174° |
| 2026-04-15 11:37 | -32.10187 | 150.84311 | 19179 ft | 284 kts | 175° |
| 2026-04-15 11:37 | -32.12119 | 150.84666 | 19181 ft | 284 kts | 177° |
| 2026-04-15 11:38 | -32.14078 | 150.84995 | 19178 ft | 284 kts | 177° |
| 2026-04-15 11:38 | -32.16042 | 150.85336 | 19180 ft | 285 kts | 176° |
| 2026-04-15 11:38 | -32.18006 | 150.85683 | 19178 ft | 285 kts | 176° |
| 2026-04-15 11:38 | -32.19964 | 150.86026 | 19179 ft | 285 kts | 176° |
| 2026-04-15 11:39 | -32.21928 | 150.86368 | 19177 ft | 285 kts | 176° |
| 2026-04-15 11:39 | -32.23894 | 150.86715 | 19179 ft | 285 kts | 176° |
| 2026-04-15 11:39 | -32.25858 | 150.87058 | 19176 ft | 285 kts | 176° |
| 2026-04-15 11:39 | -32.27823 | 150.87404 | 19177 ft | 285 kts | 176° |
| 2026-04-15 11:40 | -32.29793 | 150.87749 | 19178 ft | 286 kts | 176° |
| 2026-04-15 11:40 | -32.31758 | 150.88093 | 19180 ft | 286 kts | 176° |
| 2026-04-15 11:40 | -32.33701 | 150.88434 | 19179 ft | 286 kts | 176° |
| 2026-04-15 11:40 | -32.35678 | 150.88781 | 19183 ft | 287 kts | 176° |
| 2026-04-15 11:41 | -32.37649 | 150.89129 | 19184 ft | 287 kts | 176° |
| 2026-04-15 11:41 | -32.39629 | 150.89476 | 19182 ft | 287 kts | 176° |
| 2026-04-15 11:41 | -32.41607 | 150.89823 | 19179 ft | 287 kts | 176° |
| 2026-04-15 11:41 | -32.43586 | 150.90173 | 19178 ft | 287 kts | 176° |
| 2026-04-15 11:42 | -32.45560 | 150.90519 | 19182 ft | 287 kts | 176° |
| 2026-04-15 11:42 | -32.47533 | 150.90868 | 19184 ft | 287 kts | 176° |
| 2026-04-15 11:42 | -32.49482 | 150.91215 | 19182 ft | 287 kts | 176° |
| 2026-04-15 11:42 | -32.51459 | 150.91562 | 19184 ft | 287 kts | 176° |
| 2026-04-15 11:43 | -32.53434 | 150.91908 | 19184 ft | 287 kts | 176° |
| 2026-04-15 11:43 | -32.55410 | 150.92259 | 19186 ft | 287 kts | 176° |
| 2026-04-15 11:43 | -32.57379 | 150.92607 | 19189 ft | 284 kts | 176° |
| 2026-04-15 11:43 | -32.59315 | 150.92949 | 19188 ft | 280 kts | 176° |
| 2026-04-15 11:44 | -32.61243 | 150.93292 | 19187 ft | 280 kts | 176° |
| 2026-04-15 11:44 | -32.63178 | 150.93634 | 19190 ft | 281 kts | 176° |
| 2026-04-15 11:44 | -32.65125 | 150.93977 | 19191 ft | 283 kts | 176° |
| 2026-04-15 11:44 | -32.67076 | 150.94324 | 19193 ft | 284 kts | 176° |
| 2026-04-15 11:45 | -32.69007 | 150.94667 | 19191 ft | 285 kts | 176° |
| 2026-04-15 11:45 | -32.70972 | 150.95015 | 19188 ft | 285 kts | 176° |
| 2026-04-15 11:45 | -32.72932 | 150.95362 | 19197 ft | 285 kts | 176° |
| 2026-04-15 11:45 | -32.74900 | 150.95712 | 19196 ft | 286 kts | 176° |
| 2026-04-15 11:46 | -32.76869 | 150.96062 | 19197 ft | 286 kts | 176° |
| 2026-04-15 11:46 | -32.78846 | 150.96416 | 19193 ft | 286 kts | 176° |
| 2026-04-15 11:46 | -32.80816 | 150.96763 | 19196 ft | 286 kts | 176° |
| 2026-04-15 11:46 | -32.82791 | 150.97113 | 19198 ft | 286 kts | 176° |
| 2026-04-15 11:47 | -32.84744 | 150.97462 | 19194 ft | 287 kts | 176° |
| 2026-04-15 11:47 | -32.86715 | 150.97813 | 19195 ft | 287 kts | 176° |
| 2026-04-15 11:47 | -32.88688 | 150.98164 | 19199 ft | 287 kts | 176° |
| 2026-04-15 11:47 | -32.90666 | 150.98518 | 19200 ft | 286 kts | 176° |
| 2026-04-15 11:48 | -32.92639 | 150.98868 | 19202 ft | 287 kts | 176° |
| 2026-04-15 11:48 | -32.94609 | 150.99220 | 19201 ft | 287 kts | 176° |
| 2026-04-15 11:48 | -32.96584 | 150.99571 | 19201 ft | 287 kts | 176° |
| 2026-04-15 11:48 | -32.98554 | 150.99923 | 19202 ft | 287 kts | 175° |
| 2026-04-15 11:49 | -33.00528 | 151.00274 | 19199 ft | 283 kts | 176° |
| 2026-04-15 11:49 | -33.02455 | 151.00614 | 19067 ft | 280 kts | 176° |
| 2026-04-15 11:49 | -33.04406 | 151.00962 | 18745 ft | 285 kts | 175° |
| 2026-04-15 11:49 | -33.06385 | 151.01317 | 18420 ft | 289 kts | 175° |
| 2026-04-15 11:50 | -33.08353 | 151.01670 | 18053 ft | 290 kts | 175° |
| 2026-04-15 11:50 | -33.10352 | 151.02030 | 17692 ft | 290 kts | 175° |
| 2026-04-15 11:50 | -33.12338 | 151.02387 | 17326 ft | 288 kts | 175° |
| 2026-04-15 11:50 | -33.14323 | 151.02741 | 16972 ft | 286 kts | 175° |
| 2026-04-15 11:51 | -33.16289 | 151.03094 | 16618 ft | 285 kts | 175° |
| 2026-04-15 11:51 | -33.18253 | 151.03449 | 16290 ft | 284 kts | 175° |
| 2026-04-15 11:51 | -33.20200 | 151.03798 | 15998 ft | 282 kts | 175° |
| 2026-04-15 11:51 | -33.22135 | 151.04147 | 15701 ft | 280 kts | 175° |
| 2026-04-15 11:52 | -33.24057 | 151.04494 | 15407 ft | 279 kts | 175° |
| 2026-04-15 11:52 | -33.25959 | 151.04830 | 15075 ft | 280 kts | 175° |
| 2026-04-15 11:52 | -33.27887 | 151.05172 | 14727 ft | 280 kts | 175° |
| 2026-04-15 11:52 | -33.29815 | 151.05529 | 14415 ft | 280 kts | 174° |
| 2026-04-15 11:53 | -33.31741 | 151.05897 | 14082 ft | 280 kts | 174° |
| 2026-04-15 11:53 | -33.33687 | 151.06269 | 13725 ft | 280 kts | 174° |
| 2026-04-15 11:53 | -33.35592 | 151.06634 | 13367 ft | 280 kts | 174° |
| 2026-04-15 11:53 | -33.37516 | 151.06995 | 13014 ft | 280 kts | 174° |
| 2026-04-15 11:54 | -33.39437 | 151.07374 | 12653 ft | 280 kts | 174° |
| 2026-04-15 11:54 | -33.41359 | 151.07744 | 12305 ft | 279 kts | 174° |
| 2026-04-15 11:54 | -33.43272 | 151.08109 | 12005 ft | 278 kts | 174° |
| 2026-04-15 11:54 | -33.45174 | 151.08477 | 11710 ft | 276 kts | 174° |
| 2026-04-15 11:55 | -33.47069 | 151.08841 | 11412 ft | 274 kts | 174° |
| 2026-04-15 11:55 | -33.48950 | 151.09201 | 11113 ft | 273 kts | 174° |
| 2026-04-15 11:55 | -33.50798 | 151.09556 | 10835 ft | 271 kts | 174° |
| 2026-04-15 11:55 | -33.52662 | 151.09916 | 10555 ft | 270 kts | 174° |
| 2026-04-15 11:56 | -33.54516 | 151.10270 | 10276 ft | 270 kts | 174° |
| 2026-04-15 11:56 | -33.56369 | 151.10631 | 9975 ft | 269 kts | 174° |
| 2026-04-15 11:56 | -33.58214 | 151.10985 | 9669 ft | 268 kts | 174° |
| 2026-04-15 11:56 | -33.60051 | 151.11335 | 9360 ft | 268 kts | 174° |
| 2026-04-15 11:57 | -33.61890 | 151.11686 | 9043 ft | 262 kts | 174° |
| 2026-04-15 11:57 | -33.65390 | 151.12383 | 8342 ft | 250 kts | 173° |
| 2026-04-15 11:57 | -33.67070 | 151.12715 | 7976 ft | 248 kts | 173° |
| 2026-04-15 11:58 | -33.68774 | 151.13051 | 7602 ft | 246 kts | 173° |
| 2026-04-15 11:58 | -33.70436 | 151.13388 | 7246 ft | 240 kts | 176° |
| 2026-04-15 11:58 | -33.72083 | 151.13267 | 6881 ft | 234 kts | 186° |
| 2026-04-15 11:58 | -33.73713 | 151.13348 | 6523 ft | 236 kts | 176° |
| 2026-04-15 11:59 | -33.75344 | 151.13653 | 6102 ft | 234 kts | 170° |
| 2026-04-15 11:59 | -33.76861 | 151.14087 | 5616 ft | 215 kts | 167° |
| 2026-04-15 11:59 | -33.78267 | 151.14508 | 5146 ft | 202 kts | 168° |
| 2026-04-15 11:59 | -33.79624 | 151.14870 | 4517 ft | 199 kts | 169° |
| 2026-04-15 12:00 | -33.80970 | 151.15194 | 3893 ft | 196 kts | 169° |
| 2026-04-15 12:00 | -33.82295 | 151.15516 | 3275 ft | 192 kts | 168° |
| 2026-04-15 12:00 | -33.83592 | 151.15856 | 2643 ft | 189 kts | 166° |
| 2026-04-15 12:00 | -33.84845 | 151.16196 | 2284 ft | 173 kts | 166° |
| 2026-04-15 12:01 | -33.85967 | 151.16489 | 1932 ft | 157 kts | 166° |
| 2026-04-15 12:01 | -33.87018 | 151.16760 | 1653 ft | 154 kts | 166° |
| 2026-04-15 12:01 | -33.88016 | 151.17016 | 1432 ft | 140 kts | 167° |
| 2026-04-15 12:01 | -33.88940 | 151.17259 | 1254 ft | 132 kts | 166° |
| 2026-04-15 12:02 | -33.89820 | 151.17488 | 1071 ft | 126 kts | 165° |
| 2026-04-15 12:02 | -33.90648 | 151.17703 | 915 ft | 118 kts | 166° |
| 2026-04-15 12:02 | -33.91436 | 151.17907 | 769 ft | 114 kts | 166° |
| 2026-04-15 12:02 | -33.92210 | 151.18111 | 635 ft | 114 kts | 166° |
| 2026-04-15 12:03 | -33.92989 | 151.18314 | 485 ft | 114 kts | 167° |
| 2026-04-15 12:03 | -33.93755 | 151.18513 | 343 ft | 111 kts | 168° |
| 2026-04-15 12:03 | -33.94489 | 151.18699 | 196 ft | 107 kts | 168° |
| 2026-04-15 12:03 | -33.95207 | 151.18886 | 62 ft | 104 kts | 167° |
| 2026-04-15 12:04 | -33.95886 | 151.19067 | 25 ft | 95 kts | 168° |
| 2026-04-15 12:04 | -33.96408 | 151.19203 | 22 ft | 51 kts | 169° |
| 2026-04-15 12:04 | -33.96640 | 151.19194 | 23 ft | 15 kts | 200° |
| 2026-04-15 12:04 | -33.96691 | 151.19173 | 26 ft | 0 kts | 204° |
| 2026-04-15 12:06 | -33.96716 | 151.19115 | 26 ft | 6 kts | 291° |
| 2026-04-15 12:06 | -33.96636 | 151.19061 | 28 ft | 22 kts | 347° |
| 2026-04-15 12:06 | -33.96395 | 151.18999 | 26 ft | 26 kts | 348° |
| 2026-04-15 12:06 | -33.96285 | 151.18970 | 27 ft | 22 kts | 347° |
| 2026-04-15 12:07 | -33.96144 | 151.18932 | 27 ft | 20 kts | 349° |
| 2026-04-15 12:07 | -33.96016 | 151.18900 | 27 ft | 18 kts | 348° |
| 2026-04-15 12:07 | -33.95893 | 151.18869 | 27 ft | 18 kts | 348° |
| 2026-04-15 12:07 | -33.95775 | 151.18838 | 26 ft | 17 kts | 348° |
| 2026-04-15 12:08 | -33.95659 | 151.18808 | 26 ft | 17 kts | 348° |
| 2026-04-15 12:08 | -33.95543 | 151.18778 | 26 ft | 17 kts | 348° |
| 2026-04-15 12:08 | -33.95429 | 151.18749 | 26 ft | 17 kts | 348° |
| 2026-04-15 12:08 | -33.95316 | 151.18717 | 26 ft | 16 kts | 344° |
| 2026-04-15 12:09 | -33.95216 | 151.18653 | 27 ft | 16 kts | 320° |
| 2026-04-15 12:09 | -33.95135 | 151.18560 | 27 ft | 16 kts | 306° |
| 2026-04-15 12:09 | -33.95113 | 151.18440 | 27 ft | 14 kts | 262° |
| 2026-04-15 12:09 | -33.95133 | 151.18331 | 27 ft | 13 kts | 257° |
| 2026-04-15 12:10 | -33.95151 | 151.18229 | 27 ft | 12 kts | 257° |
| 2026-04-15 12:10 | -33.95160 | 151.18180 | 27 ft | 7 kts | 258° |
| 2026-04-15 12:10 | -33.95160 | 151.18179 | 27 ft | 0 kts | 258° |
| 2026-04-15 12:12 | -33.95163 | 151.18165 | 27 ft | 5 kts | 258° |
| 2026-04-15 12:12 | -33.95173 | 151.18105 | 27 ft | 10 kts | 258° |
| 2026-04-15 12:12 | -33.95186 | 151.18010 | 27 ft | 13 kts | 277° |
| 2026-04-15 12:13 | -33.95110 | 151.17946 | 27 ft | 17 kts | 347° |
| 2026-04-15 12:13 | -33.94989 | 151.17913 | 27 ft | 17 kts | 346° |
| 2026-04-15 12:13 | -33.94877 | 151.17883 | 26 ft | 16 kts | 347° |
| 2026-04-15 12:13 | -33.94774 | 151.17855 | 26 ft | 15 kts | 348° |
| 2026-04-15 12:14 | -33.94674 | 151.17831 | 27 ft | 14 kts | 347° |
| 2026-04-15 12:14 | -33.94577 | 151.17805 | 26 ft | 14 kts | 349° |
| 2026-04-15 12:14 | -33.94483 | 151.17781 | 26 ft | 14 kts | 346° |
| 2026-04-15 12:14 | -33.94389 | 151.17753 | 26 ft | 14 kts | 346° |
| 2026-04-15 12:15 | -33.94295 | 151.17724 | 26 ft | 14 kts | 345° |
| 2026-04-15 12:15 | -33.94201 | 151.17694 | 26 ft | 14 kts | 346° |
| 2026-04-15 12:15 | -33.94106 | 151.17666 | 25 ft | 14 kts | 347° |
| 2026-04-15 12:15 | -33.94009 | 151.17640 | 25 ft | 14 kts | 347° |
| 2026-04-15 12:16 | -33.93916 | 151.17617 | 25 ft | 14 kts | 357° |
| 2026-04-15 12:16 | -33.93859 | 151.17691 | 26 ft | 14 kts | 75° |
| 2026-04-15 12:16 | -33.93833 | 151.17809 | 26 ft | 15 kts | 73° |
| 2026-04-15 12:16 | -33.93803 | 151.17931 | 27 ft | 15 kts | 74° |
| 2026-04-15 12:17 | -33.93775 | 151.18045 | 27 ft | 12 kts | 62° |
| 2026-04-15 12:17 | -33.93716 | 151.18060 | 27 ft | 4 kts | 347° |
| 2026-04-15 12:17 | -33.93703 | 151.18073 | 27 ft | 5 kts | 62° |
| 2026-04-15 12:17 | -33.93687 | 151.18098 | 27 ft | 1 kts | 47° |
| 2026-04-15 12:18 | -33.93675 | 151.18113 | 27 ft | 0 kts | 49° |